sensor_id;sensor_type;location;lat;lon;timestamp;P1;durP1;ratioP1;P2;durP2;ratioP2
50495;SDS011;38806;51.554;5.704;2022-08-02T00:00:37;10.35;;;6.35;;
50495;SDS011;38806;51.554;5.704;2022-08-02T00:02:37;8.43;;;5.35;;
50495;SDS011;38806;51.554;5.704;2022-08-02T00:04:38;9.90;;;4.70;;
50495;SDS011;38806;51.554;5.704;2022-08-02T00:06:38;10.35;;;5.78;;
50495;SDS011;38806;51.554;5.704;2022-08-02T00:08:38;7.85;;;4.90;;
50495;SDS011;38806;51.554;5.704;2022-08-02T00:10:38;9.43;;;5.70;;
50495;SDS011;38806;51.554;5.704;2022-08-02T00:12:39;9.02;;;5.30;;
50495;SDS011;38806;51.554;5.704;2022-08-02T00:14:39;9.05;;;5.55;;
50495;SDS011;38806;51.554;5.704;2022-08-02T00:16:39;8.70;;;5.05;;
50495;SDS011;38806;51.554;5.704;2022-08-02T00:18:40;9.10;;;5.22;;
50495;SDS011;38806;51.554;5.704;2022-08-02T00:20:40;8.55;;;5.22;;
50495;SDS011;38806;51.554;5.704;2022-08-02T00:22:40;9.65;;;5.30;;
50495;SDS011;38806;51.554;5.704;2022-08-02T00:24:40;8.75;;;4.53;;
50495;SDS011;38806;51.554;5.704;2022-08-02T00:26:41;8.50;;;4.47;;
50495;SDS011;38806;51.554;5.704;2022-08-02T00:28:41;9.10;;;4.40;;
50495;SDS011;38806;51.554;5.704;2022-08-02T00:30:41;6.35;;;4.13;;
50495;SDS011;38806;51.554;5.704;2022-08-02T00:32:42;6.70;;;3.55;;
50495;SDS011;38806;51.554;5.704;2022-08-02T00:34:42;8.98;;;5.53;;
50495;SDS011;38806;51.554;5.704;2022-08-02T00:36:42;7.15;;;4.50;;
50495;SDS011;38806;51.554;5.704;2022-08-02T00:38:43;8.38;;;5.93;;
50495;SDS011;38806;51.554;5.704;2022-08-02T00:40:49;10.18;;;5.05;;
50495;SDS011;38806;51.554;5.704;2022-08-02T00:43:08;9.38;;;4.70;;
50495;SDS011;38806;51.554;5.704;2022-08-02T00:47:10;5.77;;;3.47;;
50495;SDS011;38806;51.554;5.704;2022-08-02T00:49:10;9.63;;;4.32;;
50495;SDS011;38806;51.554;5.704;2022-08-02T00:51:11;9.00;;;4.10;;
50495;SDS011;38806;51.554;5.704;2022-08-02T00:53:12;11.02;;;4.80;;
50495;SDS011;38806;51.554;5.704;2022-08-02T00:55:12;6.30;;;3.85;;
50495;SDS011;38806;51.554;5.704;2022-08-02T00:57:13;9.55;;;4.65;;
50495;SDS011;38806;51.554;5.704;2022-08-02T00:59:13;7.63;;;4.50;;
50495;SDS011;38806;51.554;5.704;2022-08-02T01:01:13;9.32;;;4.47;;
50495;SDS011;38806;51.554;5.704;2022-08-02T01:03:14;7.15;;;4.38;;
50495;SDS011;38806;51.554;5.704;2022-08-02T01:05:14;6.85;;;4.80;;
50495;SDS011;38806;51.554;5.704;2022-08-02T01:07:15;6.70;;;3.63;;
50495;SDS011;38806;51.554;5.704;2022-08-02T01:09:15;7.38;;;3.40;;
50495;SDS011;38806;51.554;5.704;2022-08-02T01:11:16;7.40;;;3.92;;
50495;SDS011;38806;51.554;5.704;2022-08-02T01:13:16;8.50;;;4.30;;
50495;SDS011;38806;51.554;5.704;2022-08-02T01:15:16;7.75;;;3.90;;
50495;SDS011;38806;51.554;5.704;2022-08-02T01:19:24;8.65;;;4.05;;
50495;SDS011;38806;51.554;5.704;2022-08-02T01:21:49;5.35;;;3.40;;
50495;SDS011;38806;51.554;5.704;2022-08-02T01:24:19;7.70;;;4.55;;
50495;SDS011;38806;51.554;5.704;2022-08-02T01:26:51;8.82;;;3.90;;
50495;SDS011;38806;51.554;5.704;2022-08-02T01:31:01;9.35;;;4.70;;
50495;SDS011;38806;51.554;5.704;2022-08-02T01:33:20;6.72;;;4.13;;
50495;SDS011;38806;51.554;5.704;2022-08-02T01:35:27;9.20;;;4.80;;
50495;SDS011;38806;51.554;5.704;2022-08-02T01:37:40;7.93;;;4.55;;
50495;SDS011;38806;51.554;5.704;2022-08-02T01:39:53;12.48;;;4.68;;
50495;SDS011;38806;51.554;5.704;2022-08-02T01:41:56;8.02;;;4.45;;
50495;SDS011;38806;51.554;5.704;2022-08-02T01:43:59;10.40;;;4.85;;
50495;SDS011;38806;51.554;5.704;2022-08-02T01:46:02;6.45;;;3.72;;
50495;SDS011;38806;51.554;5.704;2022-08-02T01:48:04;9.30;;;4.10;;
50495;SDS011;38806;51.554;5.704;2022-08-02T01:50:06;10.15;;;5.65;;
50495;SDS011;38806;51.554;5.704;2022-08-02T01:52:11;8.15;;;4.80;;
50495;SDS011;38806;51.554;5.704;2022-08-02T01:54:21;9.68;;;5.03;;
50495;SDS011;38806;51.554;5.704;2022-08-02T01:56:25;8.40;;;4.70;;
50495;SDS011;38806;51.554;5.704;2022-08-02T01:58:26;8.52;;;4.88;;
50495;SDS011;38806;51.554;5.704;2022-08-02T02:00:31;9.30;;;5.45;;
50495;SDS011;38806;51.554;5.704;2022-08-02T02:02:35;7.93;;;4.25;;
50495;SDS011;38806;51.554;5.704;2022-08-02T02:04:37;9.20;;;4.90;;
50495;SDS011;38806;51.554;5.704;2022-08-02T02:06:39;7.78;;;4.20;;
50495;SDS011;38806;51.554;5.704;2022-08-02T02:08:42;7.00;;;4.07;;
50495;SDS011;38806;51.554;5.704;2022-08-02T02:10:43;9.38;;;4.22;;
50495;SDS011;38806;51.554;5.704;2022-08-02T02:12:46;12.45;;;4.28;;
50495;SDS011;38806;51.554;5.704;2022-08-02T02:14:48;14.60;;;6.80;;
50495;SDS011;38806;51.554;5.704;2022-08-02T02:16:49;8.55;;;3.95;;
50495;SDS011;38806;51.554;5.704;2022-08-02T02:18:49;9.07;;;4.30;;
50495;SDS011;38806;51.554;5.704;2022-08-02T02:20:51;6.55;;;3.72;;
50495;SDS011;38806;51.554;5.704;2022-08-02T02:22:52;9.00;;;4.43;;
50495;SDS011;38806;51.554;5.704;2022-08-02T02:24:53;7.82;;;4.32;;
50495;SDS011;38806;51.554;5.704;2022-08-02T02:26:53;7.70;;;5.70;;
50495;SDS011;38806;51.554;5.704;2022-08-02T02:28:53;8.05;;;3.95;;
50495;SDS011;38806;51.554;5.704;2022-08-02T02:31:01;7.55;;;4.50;;
50495;SDS011;38806;51.554;5.704;2022-08-02T02:33:05;6.20;;;3.58;;
50495;SDS011;38806;51.554;5.704;2022-08-02T02:35:07;9.18;;;5.10;;
50495;SDS011;38806;51.554;5.704;2022-08-02T02:37:12;7.00;;;3.72;;
50495;SDS011;38806;51.554;5.704;2022-08-02T02:39:15;8.32;;;4.65;;
50495;SDS011;38806;51.554;5.704;2022-08-02T02:41:19;8.15;;;4.75;;
50495;SDS011;38806;51.554;5.704;2022-08-02T02:43:20;8.05;;;5.20;;
50495;SDS011;38806;51.554;5.704;2022-08-02T02:45:21;10.70;;;4.43;;
50495;SDS011;38806;51.554;5.704;2022-08-02T02:47:23;8.63;;;6.03;;
50495;SDS011;38806;51.554;5.704;2022-08-02T02:49:24;8.98;;;5.13;;
50495;SDS011;38806;51.554;5.704;2022-08-02T02:51:26;10.98;;;5.68;;
50495;SDS011;38806;51.554;5.704;2022-08-02T02:53:27;9.27;;;5.32;;
50495;SDS011;38806;51.554;5.704;2022-08-02T02:55:28;9.93;;;6.68;;
50495;SDS011;38806;51.554;5.704;2022-08-02T02:57:30;11.55;;;5.43;;
50495;SDS011;38806;51.554;5.704;2022-08-02T02:59:32;13.57;;;5.65;;
50495;SDS011;38806;51.554;5.704;2022-08-02T03:01:34;13.18;;;6.63;;
50495;SDS011;38806;51.554;5.704;2022-08-02T03:03:36;11.38;;;5.75;;
50495;SDS011;38806;51.554;5.704;2022-08-02T03:05:36;10.35;;;6.55;;
50495;SDS011;38806;51.554;5.704;2022-08-02T03:07:37;9.25;;;5.88;;
50495;SDS011;38806;51.554;5.704;2022-08-02T03:09:38;9.48;;;6.03;;
50495;SDS011;38806;51.554;5.704;2022-08-02T03:11:38;9.75;;;5.40;;
50495;SDS011;38806;51.554;5.704;2022-08-02T03:13:39;12.05;;;5.60;;
50495;SDS011;38806;51.554;5.704;2022-08-02T03:15:40;13.05;;;6.75;;
50495;SDS011;38806;51.554;5.704;2022-08-02T03:17:42;11.23;;;6.90;;
50495;SDS011;38806;51.554;5.704;2022-08-02T03:19:44;10.75;;;6.82;;
50495;SDS011;38806;51.554;5.704;2022-08-02T03:21:45;13.00;;;7.63;;
50495;SDS011;38806;51.554;5.704;2022-08-02T03:23:47;16.25;;;9.13;;
50495;SDS011;38806;51.554;5.704;2022-08-02T03:25:48;11.10;;;6.18;;
50495;SDS011;38806;51.554;5.704;2022-08-02T03:27:48;12.95;;;7.00;;
50495;SDS011;38806;51.554;5.704;2022-08-02T03:29:48;17.17;;;7.25;;
50495;SDS011;38806;51.554;5.704;2022-08-02T03:31:48;11.07;;;7.13;;
50495;SDS011;38806;51.554;5.704;2022-08-02T03:33:49;9.73;;;7.38;;
50495;SDS011;38806;51.554;5.704;2022-08-02T03:35:51;8.65;;;5.95;;
50495;SDS011;38806;51.554;5.704;2022-08-02T03:37:53;11.07;;;6.45;;
50495;SDS011;38806;51.554;5.704;2022-08-02T03:39:55;14.13;;;6.47;;
50495;SDS011;38806;51.554;5.704;2022-08-02T03:41:56;10.43;;;6.75;;
50495;SDS011;38806;51.554;5.704;2022-08-02T03:43:57;11.57;;;6.45;;
50495;SDS011;38806;51.554;5.704;2022-08-02T03:45:59;12.63;;;7.03;;
50495;SDS011;38806;51.554;5.704;2022-08-02T03:48:02;12.75;;;6.60;;
50495;SDS011;38806;51.554;5.704;2022-08-02T03:50:02;11.23;;;8.23;;
50495;SDS011;38806;51.554;5.704;2022-08-02T03:52:04;12.32;;;6.75;;
50495;SDS011;38806;51.554;5.704;2022-08-02T03:54:05;11.20;;;7.03;;
50495;SDS011;38806;51.554;5.704;2022-08-02T03:56:06;13.00;;;6.80;;
50495;SDS011;38806;51.554;5.704;2022-08-02T03:58:06;11.88;;;6.32;;
50495;SDS011;38806;51.554;5.704;2022-08-02T04:00:07;9.45;;;6.15;;
50495;SDS011;38806;51.554;5.704;2022-08-02T04:02:10;11.40;;;6.13;;
50495;SDS011;38806;51.554;5.704;2022-08-02T04:04:11;9.63;;;6.50;;
50495;SDS011;38806;51.554;5.704;2022-08-02T04:06:11;13.38;;;6.90;;
50495;SDS011;38806;51.554;5.704;2022-08-02T04:08:12;13.18;;;7.45;;
50495;SDS011;38806;51.554;5.704;2022-08-02T04:10:12;11.00;;;6.85;;
50495;SDS011;38806;51.554;5.704;2022-08-02T04:12:12;12.05;;;7.55;;
50495;SDS011;38806;51.554;5.704;2022-08-02T04:14:12;13.55;;;8.30;;
50495;SDS011;38806;51.554;5.704;2022-08-02T04:16:15;12.25;;;7.28;;
50495;SDS011;38806;51.554;5.704;2022-08-02T04:18:20;20.10;;;9.10;;
50495;SDS011;38806;51.554;5.704;2022-08-02T04:20:26;16.65;;;7.72;;
50495;SDS011;38806;51.554;5.704;2022-08-02T04:22:29;14.20;;;8.55;;
50495;SDS011;38806;51.554;5.704;2022-08-02T04:24:36;14.77;;;8.75;;
50495;SDS011;38806;51.554;5.704;2022-08-02T04:26:40;11.98;;;7.05;;
50495;SDS011;38806;51.554;5.704;2022-08-02T04:28:43;12.70;;;7.85;;
50495;SDS011;38806;51.554;5.704;2022-08-02T04:30:47;12.13;;;7.55;;
50495;SDS011;38806;51.554;5.704;2022-08-02T04:32:49;14.80;;;8.40;;
50495;SDS011;38806;51.554;5.704;2022-08-02T04:34:50;12.27;;;7.65;;
50495;SDS011;38806;51.554;5.704;2022-08-02T04:36:50;11.05;;;7.00;;
50495;SDS011;38806;51.554;5.704;2022-08-02T04:38:51;10.77;;;6.97;;
50495;SDS011;38806;51.554;5.704;2022-08-02T04:40:53;14.23;;;7.82;;
50495;SDS011;38806;51.554;5.704;2022-08-02T04:42:54;11.25;;;6.57;;
50495;SDS011;38806;51.554;5.704;2022-08-02T04:44:54;10.43;;;8.00;;
50495;SDS011;38806;51.554;5.704;2022-08-02T04:46:54;9.25;;;6.35;;
50495;SDS011;38806;51.554;5.704;2022-08-02T04:48:57;12.80;;;7.90;;
50495;SDS011;38806;51.554;5.704;2022-08-02T04:50:57;12.10;;;7.18;;
50495;SDS011;38806;51.554;5.704;2022-08-02T04:52:57;10.57;;;6.70;;
50495;SDS011;38806;51.554;5.704;2022-08-02T04:54:58;15.70;;;7.00;;
50495;SDS011;38806;51.554;5.704;2022-08-02T04:56:58;16.40;;;6.65;;
50495;SDS011;38806;51.554;5.704;2022-08-02T04:58:58;11.32;;;7.00;;
50495;SDS011;38806;51.554;5.704;2022-08-02T05:00:58;11.98;;;7.18;;
50495;SDS011;38806;51.554;5.704;2022-08-02T05:02:59;10.63;;;6.22;;
50495;SDS011;38806;51.554;5.704;2022-08-02T05:04:59;14.27;;;8.10;;
50495;SDS011;38806;51.554;5.704;2022-08-02T05:07:00;14.50;;;7.38;;
50495;SDS011;38806;51.554;5.704;2022-08-02T05:09:00;9.65;;;6.10;;
50495;SDS011;38806;51.554;5.704;2022-08-02T05:11:00;11.77;;;6.65;;
50495;SDS011;38806;51.554;5.704;2022-08-02T05:13:02;14.10;;;9.18;;
50495;SDS011;38806;51.554;5.704;2022-08-02T05:15:03;13.20;;;7.72;;
50495;SDS011;38806;51.554;5.704;2022-08-02T05:17:04;12.52;;;8.77;;
50495;SDS011;38806;51.554;5.704;2022-08-02T05:19:04;18.55;;;11.32;;
50495;SDS011;38806;51.554;5.704;2022-08-02T05:21:05;13.27;;;9.00;;
50495;SDS011;38806;51.554;5.704;2022-08-02T05:23:05;14.10;;;8.25;;
50495;SDS011;38806;51.554;5.704;2022-08-02T05:25:05;18.83;;;10.25;;
50495;SDS011;38806;51.554;5.704;2022-08-02T05:27:06;18.17;;;9.73;;
50495;SDS011;38806;51.554;5.704;2022-08-02T05:29:06;15.35;;;11.02;;
50495;SDS011;38806;51.554;5.704;2022-08-02T05:31:07;16.80;;;11.95;;
50495;SDS011;38806;51.554;5.704;2022-08-02T05:33:07;17.63;;;12.73;;
50495;SDS011;38806;51.554;5.704;2022-08-02T05:35:07;18.27;;;11.48;;
50495;SDS011;38806;51.554;5.704;2022-08-02T05:37:08;21.13;;;12.80;;
50495;SDS011;38806;51.554;5.704;2022-08-02T05:39:08;21.02;;;13.05;;
50495;SDS011;38806;51.554;5.704;2022-08-02T05:41:08;26.33;;;12.05;;
50495;SDS011;38806;51.554;5.704;2022-08-02T05:43:12;22.77;;;12.57;;
50495;SDS011;38806;51.554;5.704;2022-08-02T05:45:13;21.23;;;15.02;;
50495;SDS011;38806;51.554;5.704;2022-08-02T05:47:13;25.27;;;13.80;;
50495;SDS011;38806;51.554;5.704;2022-08-02T05:49:14;19.58;;;14.43;;
50495;SDS011;38806;51.554;5.704;2022-08-02T05:51:17;21.63;;;15.73;;
50495;SDS011;38806;51.554;5.704;2022-08-02T05:53:45;18.90;;;12.82;;
50495;SDS011;38806;51.554;5.704;2022-08-02T05:55:53;20.90;;;14.40;;
50495;SDS011;38806;51.554;5.704;2022-08-02T05:58:17;17.77;;;13.27;;
50495;SDS011;38806;51.554;5.704;2022-08-02T06:00:27;19.08;;;13.07;;
50495;SDS011;38806;51.554;5.704;2022-08-02T06:02:35;19.67;;;13.98;;
50495;SDS011;38806;51.554;5.704;2022-08-02T06:05:07;19.00;;;14.90;;
50495;SDS011;38806;51.554;5.704;2022-08-02T06:07:10;18.80;;;12.65;;
50495;SDS011;38806;51.554;5.704;2022-08-02T06:09:15;18.65;;;12.20;;
50495;SDS011;38806;51.554;5.704;2022-08-02T06:11:20;18.63;;;12.50;;
50495;SDS011;38806;51.554;5.704;2022-08-02T06:13:22;20.63;;;12.38;;
50495;SDS011;38806;51.554;5.704;2022-08-02T06:15:23;17.30;;;11.23;;
50495;SDS011;38806;51.554;5.704;2022-08-02T06:17:24;20.00;;;12.02;;
50495;SDS011;38806;51.554;5.704;2022-08-02T06:19:25;17.58;;;10.90;;
50495;SDS011;38806;51.554;5.704;2022-08-02T06:21:26;15.27;;;12.55;;
50495;SDS011;38806;51.554;5.704;2022-08-02T06:23:27;14.05;;;11.65;;
50495;SDS011;38806;51.554;5.704;2022-08-02T06:25:29;18.05;;;13.05;;
50495;SDS011;38806;51.554;5.704;2022-08-02T06:27:30;19.05;;;11.52;;
50495;SDS011;38806;51.554;5.704;2022-08-02T06:29:31;16.80;;;11.80;;
50495;SDS011;38806;51.554;5.704;2022-08-02T06:31:32;14.18;;;11.57;;
50495;SDS011;38806;51.554;5.704;2022-08-02T06:33:34;18.67;;;12.68;;
50495;SDS011;38806;51.554;5.704;2022-08-02T06:35:38;15.27;;;11.23;;
50495;SDS011;38806;51.554;5.704;2022-08-02T06:37:51;17.33;;;11.25;;
50495;SDS011;38806;51.554;5.704;2022-08-02T06:42:25;18.30;;;12.20;;
50495;SDS011;38806;51.554;5.704;2022-08-02T06:44:50;16.60;;;11.23;;
50495;SDS011;38806;51.554;5.704;2022-08-02T06:46:50;20.00;;;12.35;;
50495;SDS011;38806;51.554;5.704;2022-08-02T06:48:50;16.40;;;12.15;;
50495;SDS011;38806;51.554;5.704;2022-08-02T06:50:50;21.08;;;13.40;;
50495;SDS011;38806;51.554;5.704;2022-08-02T06:52:51;17.50;;;12.82;;
50495;SDS011;38806;51.554;5.704;2022-08-02T06:54:51;14.75;;;11.60;;
50495;SDS011;38806;51.554;5.704;2022-08-02T06:56:51;17.25;;;12.88;;
50495;SDS011;38806;51.554;5.704;2022-08-02T06:58:52;16.38;;;13.18;;
50495;SDS011;38806;51.554;5.704;2022-08-02T07:00:52;17.75;;;13.80;;
50495;SDS011;38806;51.554;5.704;2022-08-02T07:02:52;20.88;;;13.57;;
50495;SDS011;38806;51.554;5.704;2022-08-02T07:04:53;21.05;;;13.13;;
50495;SDS011;38806;51.554;5.704;2022-08-02T07:06:53;16.10;;;13.55;;
50495;SDS011;38806;51.554;5.704;2022-08-02T07:08:55;16.58;;;12.85;;
50495;SDS011;38806;51.554;5.704;2022-08-02T07:10:56;15.70;;;13.18;;
50495;SDS011;38806;51.554;5.704;2022-08-02T07:12:58;14.63;;;11.25;;
50495;SDS011;38806;51.554;5.704;2022-08-02T07:14:59;13.98;;;12.05;;
50495;SDS011;38806;51.554;5.704;2022-08-02T07:17:00;16.92;;;10.20;;
50495;SDS011;38806;51.554;5.704;2022-08-02T07:19:00;21.58;;;10.57;;
50495;SDS011;38806;51.554;5.704;2022-08-02T07:21:01;16.65;;;10.90;;
50495;SDS011;38806;51.554;5.704;2022-08-02T07:23:04;17.35;;;10.63;;
50495;SDS011;38806;51.554;5.704;2022-08-02T07:25:04;14.23;;;10.13;;
50495;SDS011;38806;51.554;5.704;2022-08-02T07:27:05;16.55;;;10.02;;
50495;SDS011;38806;51.554;5.704;2022-08-02T07:29:05;14.00;;;9.85;;
50495;SDS011;38806;51.554;5.704;2022-08-02T07:31:05;18.02;;;8.90;;
50495;SDS011;38806;51.554;5.704;2022-08-02T07:33:05;14.60;;;10.02;;
50495;SDS011;38806;51.554;5.704;2022-08-02T07:35:06;11.73;;;8.77;;
50495;SDS011;38806;51.554;5.704;2022-08-02T07:37:07;11.07;;;7.90;;
50495;SDS011;38806;51.554;5.704;2022-08-02T07:39:08;12.13;;;7.88;;
50495;SDS011;38806;51.554;5.704;2022-08-02T07:41:08;11.40;;;9.15;;
50495;SDS011;38806;51.554;5.704;2022-08-02T07:43:08;14.77;;;8.13;;
50495;SDS011;38806;51.554;5.704;2022-08-02T07:45:09;12.55;;;8.40;;
50495;SDS011;38806;51.554;5.704;2022-08-02T07:47:11;12.13;;;8.18;;
50495;SDS011;38806;51.554;5.704;2022-08-02T07:49:11;10.70;;;6.85;;
50495;SDS011;38806;51.554;5.704;2022-08-02T07:51:17;11.10;;;7.85;;
50495;SDS011;38806;51.554;5.704;2022-08-02T07:53:17;14.45;;;7.22;;
50495;SDS011;38806;51.554;5.704;2022-08-02T07:55:18;9.80;;;5.95;;
50495;SDS011;38806;51.554;5.704;2022-08-02T07:57:18;12.35;;;8.70;;
50495;SDS011;38806;51.554;5.704;2022-08-02T07:59:19;8.73;;;7.53;;
50495;SDS011;38806;51.554;5.704;2022-08-02T08:01:20;8.68;;;6.65;;
50495;SDS011;38806;51.554;5.704;2022-08-02T08:03:20;10.13;;;6.13;;
50495;SDS011;38806;51.554;5.704;2022-08-02T08:05:21;9.50;;;6.75;;
50495;SDS011;38806;51.554;5.704;2022-08-02T08:07:22;7.32;;;6.07;;
50495;SDS011;38806;51.554;5.704;2022-08-02T08:09:23;11.80;;;5.82;;
50495;SDS011;38806;51.554;5.704;2022-08-02T08:11:23;9.52;;;5.82;;
50495;SDS011;38806;51.554;5.704;2022-08-02T08:13:24;9.68;;;6.05;;
50495;SDS011;38806;51.554;5.704;2022-08-02T08:15:24;7.68;;;4.82;;
50495;SDS011;38806;51.554;5.704;2022-08-02T08:17:24;11.45;;;5.72;;
50495;SDS011;38806;51.554;5.704;2022-08-02T08:19:25;9.88;;;5.55;;
50495;SDS011;38806;51.554;5.704;2022-08-02T08:21:25;6.47;;;3.92;;
50495;SDS011;38806;51.554;5.704;2022-08-02T08:23:26;6.80;;;3.97;;
50495;SDS011;38806;51.554;5.704;2022-08-02T08:25:27;5.55;;;3.65;;
50495;SDS011;38806;51.554;5.704;2022-08-02T08:27:27;8.38;;;3.80;;
50495;SDS011;38806;51.554;5.704;2022-08-02T08:29:27;10.23;;;4.78;;
50495;SDS011;38806;51.554;5.704;2022-08-02T08:31:27;6.57;;;4.43;;
50495;SDS011;38806;51.554;5.704;2022-08-02T08:33:28;6.00;;;3.83;;
50495;SDS011;38806;51.554;5.704;2022-08-02T08:35:28;6.53;;;4.00;;
50495;SDS011;38806;51.554;5.704;2022-08-02T08:37:32;5.63;;;3.40;;
50495;SDS011;38806;51.554;5.704;2022-08-02T08:39:36;5.10;;;3.45;;
50495;SDS011;38806;51.554;5.704;2022-08-02T08:41:37;6.78;;;3.25;;
50495;SDS011;38806;51.554;5.704;2022-08-02T08:43:37;6.22;;;3.40;;
50495;SDS011;38806;51.554;5.704;2022-08-02T08:45:37;8.48;;;3.75;;
50495;SDS011;38806;51.554;5.704;2022-08-02T08:47:40;7.70;;;3.72;;
50495;SDS011;38806;51.554;5.704;2022-08-02T08:49:43;6.55;;;3.53;;
50495;SDS011;38806;51.554;5.704;2022-08-02T08:51:47;6.75;;;4.43;;
50495;SDS011;38806;51.554;5.704;2022-08-02T08:53:50;6.90;;;3.65;;
50495;SDS011;38806;51.554;5.704;2022-08-02T08:55:53;9.70;;;4.07;;
50495;SDS011;38806;51.554;5.704;2022-08-02T08:57:55;4.53;;;2.38;;
50495;SDS011;38806;51.554;5.704;2022-08-02T08:59:57;3.83;;;2.13;;
50495;SDS011;38806;51.554;5.704;2022-08-02T09:01:59;8.90;;;3.20;;
50495;SDS011;38806;51.554;5.704;2022-08-02T09:03:59;8.35;;;2.42;;
50495;SDS011;38806;51.554;5.704;2022-08-02T09:05:59;6.43;;;3.42;;
50495;SDS011;38806;51.554;5.704;2022-08-02T09:08:01;6.65;;;2.33;;
50495;SDS011;38806;51.554;5.704;2022-08-02T09:12:31;5.07;;;2.67;;
50495;SDS011;38806;51.554;5.704;2022-08-02T09:14:31;4.33;;;3.27;;
50495;SDS011;38806;51.554;5.704;2022-08-02T09:18:36;6.43;;;3.15;;
50495;SDS011;38806;51.554;5.704;2022-08-02T09:20:55;4.65;;;2.72;;
50495;SDS011;38806;51.554;5.704;2022-08-02T09:23:04;4.57;;;2.55;;
50495;SDS011;38806;51.554;5.704;2022-08-02T09:25:13;4.78;;;2.42;;
50495;SDS011;38806;51.554;5.704;2022-08-02T09:27:15;5.72;;;3.17;;
50495;SDS011;38806;51.554;5.704;2022-08-02T09:29:20;10.80;;;3.20;;
50495;SDS011;38806;51.554;5.704;2022-08-02T09:31:22;4.40;;;2.63;;
50495;SDS011;38806;51.554;5.704;2022-08-02T09:33:24;5.53;;;3.15;;
50495;SDS011;38806;51.554;5.704;2022-08-02T09:35:32;7.72;;;2.88;;
50495;SDS011;38806;51.554;5.704;2022-08-02T09:37:37;4.75;;;2.25;;
50495;SDS011;38806;51.554;5.704;2022-08-02T09:39:43;5.00;;;2.70;;
50495;SDS011;38806;51.554;5.704;2022-08-02T09:41:44;6.17;;;2.67;;
50495;SDS011;38806;51.554;5.704;2022-08-02T09:43:44;4.95;;;2.40;;
50495;SDS011;38806;51.554;5.704;2022-08-02T09:45:45;5.35;;;2.55;;
50495;SDS011;38806;51.554;5.704;2022-08-02T09:47:47;7.97;;;3.67;;
50495;SDS011;38806;51.554;5.704;2022-08-02T09:49:48;4.85;;;2.53;;
50495;SDS011;38806;51.554;5.704;2022-08-02T09:51:49;4.68;;;2.33;;
50495;SDS011;38806;51.554;5.704;2022-08-02T09:53:52;3.20;;;1.92;;
50495;SDS011;38806;51.554;5.704;2022-08-02T09:55:56;6.38;;;3.28;;
50495;SDS011;38806;51.554;5.704;2022-08-02T09:57:56;6.25;;;2.30;;
50495;SDS011;38806;51.554;5.704;2022-08-02T09:59:57;4.07;;;2.13;;
50495;SDS011;38806;51.554;5.704;2022-08-02T10:01:58;5.43;;;2.38;;
50495;SDS011;38806;51.554;5.704;2022-08-02T10:04:03;5.03;;;2.35;;
50495;SDS011;38806;51.554;5.704;2022-08-02T10:06:05;4.68;;;1.90;;
50495;SDS011;38806;51.554;5.704;2022-08-02T10:08:06;4.13;;;2.30;;
50495;SDS011;38806;51.554;5.704;2022-08-02T10:10:06;4.88;;;1.83;;
50495;SDS011;38806;51.554;5.704;2022-08-02T10:12:07;3.50;;;2.13;;
50495;SDS011;38806;51.554;5.704;2022-08-02T10:14:09;2.95;;;1.50;;
50495;SDS011;38806;51.554;5.704;2022-08-02T10:16:10;5.50;;;2.15;;
50495;SDS011;38806;51.554;5.704;2022-08-02T10:18:11;4.47;;;1.73;;
50495;SDS011;38806;51.554;5.704;2022-08-02T10:20:11;5.57;;;1.50;;
50495;SDS011;38806;51.554;5.704;2022-08-02T10:22:12;4.00;;;1.83;;
50495;SDS011;38806;51.554;5.704;2022-08-02T10:24:15;4.97;;;1.90;;
50495;SDS011;38806;51.554;5.704;2022-08-02T10:26:19;2.67;;;1.33;;
50495;SDS011;38806;51.554;5.704;2022-08-02T10:28:26;4.30;;;2.28;;
50495;SDS011;38806;51.554;5.704;2022-08-02T10:30:33;7.32;;;1.90;;
50495;SDS011;38806;51.554;5.704;2022-08-02T10:32:37;2.72;;;1.70;;
50495;SDS011;38806;51.554;5.704;2022-08-02T10:34:46;3.70;;;1.80;;
50495;SDS011;38806;51.554;5.704;2022-08-02T10:36:49;2.85;;;2.05;;
50495;SDS011;38806;51.554;5.704;2022-08-02T10:38:52;2.13;;;1.15;;
50495;SDS011;38806;51.554;5.704;2022-08-02T10:40:54;4.95;;;1.70;;
50495;SDS011;38806;51.554;5.704;2022-08-02T10:42:55;2.20;;;1.63;;
50495;SDS011;38806;51.554;5.704;2022-08-02T10:45:08;2.17;;;1.40;;
50495;SDS011;38806;51.554;5.704;2022-08-02T10:49:23;3.35;;;1.65;;
50495;SDS011;38806;51.554;5.704;2022-08-02T10:51:24;5.67;;;2.13;;
50495;SDS011;38806;51.554;5.704;2022-08-02T10:55:28;2.50;;;1.60;;
50495;SDS011;38806;51.554;5.704;2022-08-02T10:57:43;5.10;;;1.77;;
50495;SDS011;38806;51.554;5.704;2022-08-02T10:59:44;3.33;;;1.70;;
50495;SDS011;38806;51.554;5.704;2022-08-02T11:01:44;10.15;;;1.52;;
50495;SDS011;38806;51.554;5.704;2022-08-02T11:03:45;3.67;;;1.73;;
50495;SDS011;38806;51.554;5.704;2022-08-02T11:05:57;4.38;;;1.58;;
50495;SDS011;38806;51.554;5.704;2022-08-02T11:08:23;5.93;;;1.52;;
50495;SDS011;38806;51.554;5.704;2022-08-02T11:14:33;4.83;;;1.50;;
50495;SDS011;38806;51.554;5.704;2022-08-02T11:23:33;3.28;;;1.60;;
50495;SDS011;38806;51.554;5.704;2022-08-02T11:25:37;2.83;;;1.73;;
50495;SDS011;38806;51.554;5.704;2022-08-02T11:27:37;5.60;;;1.60;;
50495;SDS011;38806;51.554;5.704;2022-08-02T11:29:39;3.15;;;1.70;;
50495;SDS011;38806;51.554;5.704;2022-08-02T11:31:41;3.10;;;1.08;;
50495;SDS011;38806;51.554;5.704;2022-08-02T11:33:43;2.22;;;1.40;;
50495;SDS011;38806;51.554;5.704;2022-08-02T11:35:44;2.65;;;1.20;;
50495;SDS011;38806;51.554;5.704;2022-08-02T11:37:44;3.95;;;1.48;;
50495;SDS011;38806;51.554;5.704;2022-08-02T11:39:49;2.70;;;1.30;;
50495;SDS011;38806;51.554;5.704;2022-08-02T11:41:59;3.10;;;1.42;;
50495;SDS011;38806;51.554;5.704;2022-08-02T11:44:00;5.95;;;1.60;;
50495;SDS011;38806;51.554;5.704;2022-08-02T11:46:01;3.97;;;1.52;;
50495;SDS011;38806;51.554;5.704;2022-08-02T11:48:10;2.80;;;1.08;;
50495;SDS011;38806;51.554;5.704;2022-08-02T11:50:11;3.58;;;1.25;;
50495;SDS011;38806;51.554;5.704;2022-08-02T11:52:11;3.88;;;1.30;;
50495;SDS011;38806;51.554;5.704;2022-08-02T11:54:11;3.03;;;1.33;;
50495;SDS011;38806;51.554;5.704;2022-08-02T11:56:12;5.55;;;1.90;;
50495;SDS011;38806;51.554;5.704;2022-08-02T11:58:13;4.90;;;1.15;;
50495;SDS011;38806;51.554;5.704;2022-08-02T12:00:14;3.97;;;1.50;;
50495;SDS011;38806;51.554;5.704;2022-08-02T12:02:16;4.57;;;1.17;;
50495;SDS011;38806;51.554;5.704;2022-08-02T12:04:18;1.85;;;1.13;;
50495;SDS011;38806;51.554;5.704;2022-08-02T12:06:19;5.15;;;1.70;;
50495;SDS011;38806;51.554;5.704;2022-08-02T12:08:19;6.00;;;2.10;;
50495;SDS011;38806;51.554;5.704;2022-08-02T12:10:23;3.88;;;1.45;;
50495;SDS011;38806;51.554;5.704;2022-08-02T12:12:24;3.85;;;1.35;;
50495;SDS011;38806;51.554;5.704;2022-08-02T12:14:26;3.15;;;1.58;;
50495;SDS011;38806;51.554;5.704;2022-08-02T12:16:32;4.22;;;1.38;;
50495;SDS011;38806;51.554;5.704;2022-08-02T12:18:52;2.90;;;0.95;;
50495;SDS011;38806;51.554;5.704;2022-08-02T12:21:24;3.28;;;1.63;;
50495;SDS011;38806;51.554;5.704;2022-08-02T12:23:25;3.58;;;1.50;;
50495;SDS011;38806;51.554;5.704;2022-08-02T12:25:26;3.55;;;1.40;;
50495;SDS011;38806;51.554;5.704;2022-08-02T12:27:36;4.72;;;1.35;;
50495;SDS011;38806;51.554;5.704;2022-08-02T12:29:40;4.72;;;1.30;;
50495;SDS011;38806;51.554;5.704;2022-08-02T12:31:42;3.85;;;1.60;;
50495;SDS011;38806;51.554;5.704;2022-08-02T12:33:48;3.10;;;1.30;;
50495;SDS011;38806;51.554;5.704;2022-08-02T12:35:49;3.20;;;1.30;;
50495;SDS011;38806;51.554;5.704;2022-08-02T12:37:50;5.28;;;1.70;;
50495;SDS011;38806;51.554;5.704;2022-08-02T12:39:50;1.90;;;1.17;;
50495;SDS011;38806;51.554;5.704;2022-08-02T12:41:55;5.25;;;2.00;;